Time;durP1;ratioP1;P1;durP2;ratioP2;P2;SDS_P1;SDS_P2;PMS_P1;PMS_P2;Temp;Humidity;BMP_temperature;BMP_pressure;BME280_temperature;BME280_humidity;BME280_pressure;Samples;Min_cycle;Max_cycle;Signal;HPM_P1;HPM_P2
2021/11/10 00:02:31;;;;;;;64.10;30.27;;;;;;;5.01;100.00;101933.06;3352858;84;99114;-88
2021/11/10 00:07:32;;;;;;;55.67;27.43;;;;;;;4.99;100.00;101930.66;3390036;85;99474;-88
2021/11/10 00:12:33;;;;;;;52.50;25.93;;;;;;;4.95;100.00;101929.64;3401179;85;99639;-88
2021/11/10 00:17:36;;;;;;;47.37;23.83;;;;;;;4.91;100.00;101934.64;3395174;84;56181;-88
2021/11/10 00:22:37;;;;;;;51.20;23.97;;;;;;;4.86;100.00;101938.84;3328396;85;99264;-89
2021/11/10 00:27:38;;;;;;;44.17;23.73;;;;;;;4.81;100.00;101932.11;3406788;84;99456;-87
2021/11/10 00:32:39;;;;;;;39.23;21.68;;;;;;;4.80;100.00;101927.20;3334992;84;99526;-90
2021/11/10 00:37:40;;;;;;;42.30;23.17;;;;;;;4.74;100.00;101922.95;3403455;84;99110;-88
2021/11/10 00:42:41;;;;;;;44.45;21.12;;;;;;;4.73;100.00;101922.70;3392342;84;99406;-88
2021/11/10 00:47:42;;;;;;;36.37;19.67;;;;;;;4.69;100.00;101914.87;3403679;84;66041;-88
2021/11/10 00:52:43;;;;;;;48.60;24.20;;;;;;;4.65;100.00;101917.14;3398346;84;98855;-89
2021/11/10 00:57:44;;;;;;;42.80;21.63;;;;;;;4.59;100.00;101916.98;3402435;84;99137;-89
2021/11/10 01:02:46;;;;;;;42.30;22.03;;;;;;;4.55;100.00;101920.88;3403543;84;99124;-89
2021/11/10 01:07:47;;;;;;;42.77;21.63;;;;;;;4.56;100.00;101915.67;3402089;85;99455;-89
2021/11/10 01:12:48;;;;;;;41.50;19.90;;;;;;;4.53;100.00;101913.53;3398779;85;99089;-89
2021/11/10 01:17:49;;;;;;;41.30;20.77;;;;;;;4.53;100.00;101908.66;3400670;84;32244;-89
2021/11/10 01:22:50;;;;;;;38.47;19.97;;;;;;;4.53;100.00;101892.30;3396846;85;99128;-87
2021/11/10 01:27:51;;;;;;;45.37;23.53;;;;;;;4.53;100.00;101882.75;3405249;85;99168;-88
2021/11/10 01:32:52;;;;;;;45.47;22.13;;;;;;;4.51;100.00;101883.05;3400080;85;99024;-89
2021/11/10 01:37:53;;;;;;;41.17;22.60;;;;;;;4.47;100.00;101873.05;3399521;85;98951;-89
2021/11/10 01:42:58;;;;;;;43.20;21.07;;;;;;;4.46;100.00;101873.59;3386200;84;99125;-88
2021/11/10 01:47:58;;;;;;;40.20;19.80;;;;;;;4.42;100.00;101861.67;3406361;84;27975;-89
2021/11/10 01:52:59;;;;;;;43.23;21.65;;;;;;;4.40;100.00;101863.90;3396028;84;99178;-90
2021/11/10 01:58:00;;;;;;;47.40;22.43;;;;;;;4.38;100.00;101862.04;3400683;84;99169;-89
2021/11/10 02:03:01;;;;;;;42.23;19.57;;;;;;;4.20;100.00;101823.96;3399546;85;98775;-89
2021/11/10 02:08:03;;;;;;;50.63;24.27;;;;;;;4.20;100.00;101823.96;3388784;85;99077;-89
2021/11/10 02:13:05;;;;;;;52.67;23.83;;;;;;;4.30;100.00;101847.73;3381524;84;99076;-89
2021/11/10 02:18:07;;;;;;;51.10;26.40;;;;;;;4.27;100.00;101842.08;3386505;85;31684;-89
2021/11/10 02:23:08;;;;;;;49.60;27.00;;;;;;;4.30;100.00;101827.29;3374891;85;98864;-90
2021/11/10 02:28:09;;;;;;;47.53;24.03;;;;;;;4.28;100.00;101828.16;3390003;85;98847;-89
2021/11/10 02:33:11;;;;;;;47.03;23.37;;;;;;;4.24;100.00;101818.95;3384886;84;99064;-90
2021/11/10 02:38:13;;;;;;;46.73;24.13;;;;;;;4.20;100.00;101807.61;3397893;85;99047;-89
2021/11/10 02:43:13;;;;;;;51.63;26.40;;;;;;;4.16;100.00;101802.50;3380332;85;99384;-89
2021/11/10 02:48:18;;;;;;;50.13;24.80;;;;;;;4.13;100.00;101799.82;3386694;85;31564;-89
2021/11/10 02:53:19;;;;;;;43.23;22.70;;;;;;;4.10;100.00;101792.23;3383471;85;99136;-89
2021/11/10 02:58:20;;;;;;;43.33;22.82;;;;;;;4.02;100.00;101784.77;3381248;85;98853;-89
2021/11/10 03:03:20;;;;;;;41.80;21.60;;;;;;;3.97;100.00;101786.22;3374723;85;99103;-89
2021/11/10 03:08:22;;;;;;;39.80;20.93;;;;;;;3.91;100.00;101781.98;3386328;85;99115;-89
2021/11/10 03:13:23;;;;;;;37.83;19.80;;;;;;;3.85;100.00;101785.91;3384385;85;99047;-88
2021/11/10 03:18:24;;;;;;;46.13;24.47;;;;;;;3.81;100.00;101784.05;3392800;85;31654;-89
2021/11/10 03:23:25;;;;;;;41.33;21.33;;;;;;;3.78;100.00;101789.55;3385578;85;98825;-89
2021/11/10 03:28:25;;;;;;;44.37;20.53;;;;;;;3.78;100.00;101786.83;3389628;84;116140;-88
2021/11/10 03:33:26;;;;;;;46.37;22.70;;;;;;;3.75;100.00;101779.81;3383547;84;99464;-88
2021/11/10 03:38:27;;;;;;;48.37;24.53;;;;;;;3.76;100.00;101763.75;3388357;85;99087;-87
2021/11/10 03:43:28;;;;;;;44.50;21.90;;;;;;;3.75;100.00;101767.55;3384931;85;99030;-88
2021/11/10 03:48:30;;;;;;;43.43;23.00;;;;;;;3.74;100.00;101767.31;3392334;85;34920;-88
2021/11/10 03:53:31;;;;;;;46.28;23.30;;;;;;;3.69;100.00;101766.85;3372706;84;99065;-88
2021/11/10 03:58:33;;;;;;;49.73;23.27;;;;;;;3.67;100.00;101757.37;3392008;85;98784;-88
2021/11/10 04:03:35;;;;;;;43.57;23.77;;;;;;;3.66;100.00;101755.75;3384702;85;99143;-87
2021/11/10 04:08:36;;;;;;;46.07;23.80;;;;;;;3.63;100.00;101748.17;3388656;85;99002;-88
2021/11/10 04:13:37;;;;;;;50.57;23.63;;;;;;;3.55;100.00;101752.95;3388499;84;99056;-88
2021/11/10 04:18:38;;;;;;;56.67;27.30;;;;;;;3.54;100.00;101748.59;3390439;85;98991;-88
2021/11/10 04:23:38;;;;;;;61.43;33.97;;;;;;;3.48;100.00;101747.88;3386707;84;98834;-88
2021/11/10 04:28:39;;;;;;;63.87;36.07;;;;;;;3.51;100.00;101753.28;3390996;85;98910;-88
2021/11/10 04:33:42;;;;;;;60.83;31.80;;;;;;;3.50;100.00;101743.52;3378534;85;98961;-87
2021/11/10 04:38:44;;;;;;;76.00;38.17;;;;;;;3.47;100.00;101736.75;3362840;85;99136;-89
2021/11/10 04:43:45;;;;;;;82.80;40.83;;;;;;;3.49;100.00;101736.45;3383824;85;99022;-89
2021/11/10 04:48:46;;;;;;;60.00;30.00;;;;;;;3.45;100.00;101739.52;3387629;85;98253;-88
2021/11/10 04:53:48;;;;;;;51.28;27.55;;;;;;;3.35;100.00;101723.34;3381742;85;99296;-88
2021/11/10 04:58:49;;;;;;;52.07;25.60;;;;;;;3.29;100.00;101730.77;3378767;85;98946;-88
2021/11/10 05:03:49;;;;;;;54.70;26.60;;;;;;;3.24;100.00;101723.26;3380435;85;99089;-88
2021/11/10 05:08:51;;;;;;;50.83;26.73;;;;;;;3.18;100.00;101714.92;3390011;85;98319;-88
2021/11/10 05:13:52;;;;;;;52.20;26.33;;;;;;;3.13;100.00;101707.66;3382861;84;99092;-89
2021/11/10 05:18:52;;;;;;;53.80;25.50;;;;;;;3.13;100.00;101710.92;3391674;85;99047;-89
2021/11/10 05:23:53;;;;;;;54.17;25.87;;;;;;;3.11;100.00;101707.13;3387227;84;99012;-89
2021/11/10 05:28:54;;;;;;;60.40;27.72;;;;;;;3.14;100.00;101707.09;3395005;85;98972;-89
2021/11/10 05:33:55;;;;;;;55.87;27.13;;;;;;;3.13;100.00;101704.95;3385019;85;99275;-89
2021/11/10 05:38:56;;;;;;;53.25;25.70;;;;;;;3.13;100.00;101701.41;3392636;85;99331;-89
2021/11/10 05:43:56;;;;;;;54.10;26.63;;;;;;;3.12;100.00;101714.18;3385305;85;99095;-90
2021/11/10 05:48:57;;;;;;;55.65;27.40;;;;;;;3.09;100.00;101701.19;3393154;84;98992;-89
2021/11/10 05:53:58;;;;;;;52.57;26.27;;;;;;;3.08;100.00;101694.69;3386917;84;98743;-93
2021/11/10 05:59:02;;;;;;;53.00;25.70;;;;;;;3.02;100.00;101697.23;3392484;85;98918;-93
2021/11/10 06:04:04;;;;;;;56.58;26.30;;;;;;;2.99;100.00;101689.66;3391428;84;99412;-93
2021/11/10 06:09:05;;;;;;;53.50;26.00;;;;;;;2.99;100.00;101691.01;3405956;84;98181;-93
2021/11/10 06:14:06;;;;;;;48.90;24.75;;;;;;;2.92;100.00;101695.48;3398333;85;99406;-94
2021/11/10 06:19:07;;;;;;;51.77;26.57;;;;;;;2.92;100.00;101698.20;3401908;85;98998;-93
2021/11/10 06:24:07;;;;;;;54.23;27.00;;;;;;;2.93;100.00;101691.66;3410268;84;98809;-94
2021/11/10 06:29:08;;;;;;;59.10;27.77;;;;;;;2.90;100.00;101688.16;3401420;85;98862;-92
2021/11/10 06:34:09;;;;;;;59.20;26.82;;;;;;;2.92;100.00;101690.59;3398325;85;98989;-94
2021/11/10 06:39:10;;;;;;;58.40;27.73;;;;;;;2.92;100.00;101685.97;3403663;85;99106;-93
2021/11/10 06:44:11;;;;;;;52.67;26.13;;;;;;;2.90;100.00;101687.36;3388156;85;99026;-93
2021/11/10 06:49:12;;;;;;;57.65;26.62;;;;;;;2.90;100.00;101686.01;3404790;85;98997;-93
2021/11/10 06:54:13;;;;;;;69.90;31.67;;;;;;;2.91;100.00;101692.52;3397870;85;98750;-93
2021/11/10 06:59:13;;;;;;;62.47;28.80;;;;;;;2.92;100.00;101684.61;3403528;85;98934;-93
2021/11/10 07:04:14;;;;;;;60.37;29.10;;;;;;;2.95;100.00;101685.36;3389495;85;99141;-93
2021/11/10 07:09:15;;;;;;;53.83;27.10;;;;;;;2.99;100.00;101688.29;3392548;85;99037;-92
2021/11/10 07:14:16;;;;;;;59.10;29.50;;;;;;;3.00;100.00;101692.08;3387008;84;99118;-92
2021/11/10 07:19:17;;;;;;;62.13;29.07;;;;;;;3.05;100.00;101692.00;3389791;85;99022;-93
2021/11/10 07:24:18;;;;;;;55.20;27.97;;;;;;;3.10;100.00;101700.63;3389610;84;98798;-90
2021/11/10 07:29:18;;;;;;;62.00;29.17;;;;;;;3.13;100.00;101704.13;3395321;85;98849;-90
2021/11/10 07:34:19;;;;;;;56.93;30.33;;;;;;;3.17;100.00;101688.27;3367282;85;98904;-90
2021/11/10 07:39:20;;;;;;;59.87;30.93;;;;;;;3.22;100.00;101688.19;3391850;85;99016;-90
2021/11/10 07:44:22;;;;;;;60.17;29.50;;;;;;;3.29;100.00;101687.81;3399763;85;99108;-90
2021/11/10 07:49:23;;;;;;;66.37;33.33;;;;;;;3.37;100.00;101682.49;3377826;85;98380;-91
2021/11/10 07:54:24;;;;;;;63.40;30.80;;;;;;;3.48;100.00;101685.28;3370162;85;99013;-91
2021/11/10 07:59:25;;;;;;;72.87;34.33;;;;;;;3.59;100.00;101681.81;3392201;85;98772;-91
2021/11/10 08:04:25;;;;;;;64.07;33.10;;;;;;;3.76;100.00;101690.23;3386649;85;98912;-92
2021/11/10 08:09:27;;;;;;;68.57;32.47;;;;;;;3.93;100.00;101698.62;3391399;85;99191;-92
2021/11/10 08:14:29;;;;;;;68.87;35.30;;;;;;;4.15;100.00;101693.27;3337730;87;99166;-92
2021/11/10 08:19:30;;;;;;;70.90;33.93;;;;;;;4.45;100.00;101698.89;3398678;85;99576;-89
2021/11/10 08:24:32;;;;;;;69.80;35.23;;;;;;;4.79;100.00;101704.66;3335399;87;98677;-91
2021/11/10 08:29:33;;;;;;;67.40;35.50;;;;;;;5.22;100.00;101709.91;3398615;85;98738;-91
2021/11/10 08:34:33;;;;;;;66.53;35.07;;;;;;;5.69;100.00;101697.52;3329971;85;99060;-92
2021/11/10 08:39:34;;;;;;;57.63;31.37;;;;;;;6.31;100.00;101687.59;3401030;85;99087;-92
2021/11/10 08:44:41;;;;;;;52.93;28.13;;;;;;;6.97;100.00;101674.05;3391750;85;99089;-92
2021/11/10 08:49:39;;;;;;;50.20;26.67;;;;;;;7.51;100.00;101694.69;3394747;85;99046;-91
2021/11/10 08:54:40;;;;;;;48.33;25.40;;;;;;;8.09;100.00;101701.68;3385105;84;99035;-91
2021/11/10 08:59:41;;;;;;;46.03;25.63;;;;;;;8.52;100.00;101696.80;3395511;85;33442;-91
2021/11/10 09:04:42;;;;;;;44.70;25.60;;;;;;;8.97;100.00;101693.64;3389489;85;99214;-92
2021/11/10 09:09:43;;;;;;;44.40;24.47;;;;;;;9.33;100.00;101683.38;3394464;84;99111;-91
2021/11/10 09:14:43;;;;;;;47.47;24.90;;;;;;;9.76;100.00;101668.61;3361423;85;98755;-89
2021/11/10 09:19:44;;;;;;;42.33;24.40;;;;;;;10.11;100.00;101667.87;3333647;86;99284;-87
2021/11/10 09:24:45;;;;;;;43.50;23.83;;;;;;;10.35;99.85;101659.59;3356126;85;99360;-92
2021/11/10 09:29:46;;;;;;;45.40;23.40;;;;;;;10.47;97.58;101654.07;3393736;84;31602;-91
2021/11/10 09:34:47;;;;;;;42.10;24.17;;;;;;;10.56;95.34;101649.25;3386289;85;99116;-90
2021/11/10 09:39:48;;;;;;;42.67;24.43;;;;;;;10.74;95.75;101647.81;3406496;85;99268;-89
2021/11/10 09:44:52;;;;;;;33.37;20.33;;;;;;;10.95;93.99;101642.94;3398247;85;99257;-88
2021/11/10 09:49:52;;;;;;;33.98;20.48;;;;;;;11.01;91.49;101644.88;3334632;86;99312;-91
2021/11/10 09:54:53;;;;;;;35.15;19.55;;;;;;;10.92;91.49;101642.27;3381698;85;99253;-90
2021/11/10 09:59:54;;;;;;;31.00;19.67;;;;;;;11.09;91.21;101629.58;3391444;85;42176;-90
2021/11/10 10:04:56;;;;;;;33.93;20.73;;;;;;;11.22;90.30;101638.00;3325800;86;99059;-88
2021/11/10 10:09:56;;;;;;;32.77;18.57;;;;;;;11.16;86.71;101620.68;3392456;85;99218;-89
2021/11/10 10:14:57;;;;;;;36.68;20.48;;;;;;;11.07;88.27;101618.09;3385179;84;99262;-89
2021/11/10 10:19:58;;;;;;;31.83;18.60;;;;;;;11.11;87.96;101609.91;3336452;86;99249;-87
2021/11/10 10:25:00;;;;;;;34.10;19.40;;;;;;;11.06;86.69;101610.98;3385094;84;99685;-85
2021/11/10 10:30:29;;;;;;;28.83;17.17;;;;;;;10.97;85.78;101600.67;3395377;84;31587;-88
2021/11/10 10:35:50;;;;;;;37.77;19.27;;;;;;;10.80;85.30;101591.94;3375981;85;98676;-88
2021/11/10 10:40:55;;;;;;;37.73;20.95;;;;;;;10.78;86.56;101596.41;3394187;85;99015;-87
2021/11/10 10:45:59;;;;;;;31.23;19.00;;;;;;;10.74;85.79;101580.36;3382758;85;99051;-86
2021/11/10 10:51:05;;;;;;;29.20;18.63;;;;;;;10.62;84.80;101579.59;3390175;83;99268;-86
2021/11/10 10:56:30;;;;;;;30.57;17.87;;;;;;;10.51;85.34;101574.34;3383159;85;99295;-86
2021/11/10 11:01:37;;;;;;;30.00;17.95;;;;;;;10.47;84.81;101572.09;3389732;85;99173;-87
2021/11/10 11:07:02;;;;;;;31.62;16.07;;;;;;;10.24;83.38;101574.54;3393438;85;99156;-85
2021/11/10 11:12:16;;;;;;;27.00;16.20;;;;;;;10.16;83.12;101567.80;3398060;85;98930;-84
2021/11/10 11:17:25;;;;;;;29.92;16.05;;;;;;;9.98;82.53;101555.42;3398465;85;99008;-85
2021/11/10 11:22:31;;;;;;;27.90;16.55;;;;;;;9.79;82.40;101551.06;3380790;85;98849;-85
2021/11/10 11:27:32;;;;;;;28.97;17.33;;;;;;;9.66;81.81;101542.01;3392751;84;99552;-84
2021/11/10 11:32:38;;;;;;;28.43;16.87;;;;;;;9.58;82.22;101542.94;3387761;85;98850;-87
2021/11/10 11:37:41;;;;;;;37.90;20.37;;;;;;;9.49;83.02;101540.86;3335568;87;99441;-85
2021/11/10 11:42:51;;;;;;;33.40;17.47;;;;;;;9.48;83.46;101539.86;3386802;85;99287;-84
2021/11/10 11:47:55;;;;;;;29.95;18.52;;;;;;;9.47;82.88;101529.42;3379542;85;32926;-84
2021/11/10 11:52:56;;;;;;;38.25;20.82;;;;;;;9.46;82.90;101538.00;3329604;87;99385;-85
2021/11/10 11:58:17;;;;;;;38.60;20.85;;;;;;;9.44;83.54;101535.59;3394178;85;99258;-84
2021/11/10 12:03:26;;;;;;;33.70;19.48;;;;;;;9.45;83.25;101539.16;3398907;85;98929;-84
2021/11/10 12:08:53;;;;;;;40.92;21.33;;;;;;;9.39;83.46;101532.28;3392042;85;98888;-86
2021/11/10 12:14:19;;;;;;;;;;;;;;;9.37;83.91;101522.22;3394156;84;98853;-85
2021/11/10 12:19:43;;;;;;;36.48;20.20;;;;;;;9.42;83.59;101520.03;3396556;85;85320;-85
2021/11/10 12:25:00;;;;;;;36.03;19.92;;;;;;;9.37;84.12;101511.23;3386417;85;98936;-85
2021/11/10 12:30:09;;;;;;;35.80;20.03;;;;;;;9.37;84.18;101508.48;3395714;85;31476;-86
2021/11/10 12:35:40;;;;;;;34.63;20.25;;;;;;;9.44;84.88;101505.95;3386969;85;99242;-86
2021/11/10 12:40:54;;;;;;;39.90;19.40;;;;;;;9.51;84.93;101491.06;3380053;85;98692;-85
2021/11/10 12:46:04;;;;;;;29.63;18.82;;;;;;;9.55;85.23;101483.74;3351586;85;99043;-85
2021/11/10 12:51:30;;;;;;;34.83;19.33;;;;;;;9.61;85.00;101480.42;3382309;85;98730;-86
2021/11/10 12:56:52;;;;;;;34.53;19.87;;;;;;;9.59;84.71;101476.42;3338918;87;98972;-84
2021/11/10 13:01:55;;;;;;;39.23;25.55;;;;;;;9.62;84.29;101483.39;3386828;85;99514;-85
2021/11/10 13:07:06;;;;;;;32.80;20.57;;;;;;;9.61;84.51;101482.36;3410348;84;98933;-87
2021/11/10 13:12:05;;;;;;;30.85;18.25;;;;;;;9.65;84.67;101482.69;3408061;85;98989;-85
2021/11/10 13:17:09;;;;;;;35.58;20.27;;;;;;;9.64;84.74;101486.59;3421786;84;99325;-86
2021/11/10 13:22:33;;;;;;;37.28;21.17;;;;;;;9.64;84.61;101489.90;3413968;85;98830;-86
2021/11/10 13:27:41;;;;;;;33.78;21.57;;;;;;;9.62;84.77;101488.08;3424426;84;98993;-87
2021/11/10 13:32:43;;;;;;;35.25;20.60;;;;;;;9.51;84.66;101487.75;3414427;85;99249;-85
2021/11/10 13:37:51;;;;;;;32.13;19.85;;;;;;;9.44;85.06;101474.36;3426851;85;98840;-87
2021/11/10 13:42:56;;;;;;;29.42;18.48;;;;;;;9.31;85.30;101471.36;3421437;85;98835;-85
2021/11/10 13:48:06;;;;;;;32.95;20.35;;;;;;;9.16;85.99;101476.97;3431530;83;40761;-85
2021/11/10 13:53:22;;;;;;;34.33;21.27;;;;;;;8.97;86.27;101479.47;3413610;84;99183;-85
2021/11/10 13:58:22;;;;;;;32.60;20.30;;;;;;;8.79;86.83;101466.27;3415947;85;98807;-86
2021/11/10 14:03:27;;;;;;;38.17;21.82;;;;;;;8.68;87.37;101478.23;3413409;85;99315;-85
2021/11/10 14:08:27;;;;;;;34.73;21.97;;;;;;;8.59;87.65;101467.13;3428449;84;99454;-85
2021/11/10 14:13:28;;;;;;;27.93;17.67;;;;;;;8.54;87.72;101468.70;3413768;85;99057;-84
2021/11/10 14:18:29;;;;;;;39.33;24.70;;;;;;;8.48;88.05;101474.99;3421126;85;32006;-85
2021/11/10 14:23:34;;;;;;;35.43;22.70;;;;;;;8.43;88.09;101488.91;3386557;85;98590;-85
2021/11/10 14:28:40;;;;;;;37.55;22.65;;;;;;;8.28;88.19;101473.66;3436473;84;98730;-84
2021/11/10 14:33:43;;;;;;;38.77;23.73;;;;;;;8.35;88.34;101496.64;3413116;85;99362;-85
2021/11/10 14:38:52;;;;;;;35.43;22.27;;;;;;;8.30;88.54;101496.84;3438766;84;98913;-85
2021/11/10 14:43:58;;;;;;;38.67;23.18;;;;;;;8.19;88.78;101504.42;3406776;85;98844;-85
2021/11/10 14:49:22;;;;;;;37.75;22.13;;;;;;;8.03;88.90;101493.27;3378652;86;99421;-85
2021/11/10 14:54:33;;;;;;;34.73;21.33;;;;;;;7.90;89.29;101494.89;3415733;84;98551;-85
2021/11/10 14:59:43;;;;;;;39.75;23.80;;;;;;;7.80;89.56;101511.14;3418399;85;98534;-87
2021/11/10 15:05:06;;;;;;;39.78;23.30;;;;;;;7.69;89.79;101495.44;3412724;85;98649;-85
2021/11/10 15:10:22;;;;;;;46.18;26.52;;;;;;;7.56;90.04;101505.49;3402912;84;98761;-85
2021/11/10 15:15:28;;;;;;;47.98;28.07;;;;;;;7.42;90.23;101508.23;3346235;86;99454;-85
2021/11/10 15:20:29;;;;;;;50.73;30.43;;;;;;;7.28;90.56;101497.50;3405175;84;99511;-87
2021/11/10 15:25:34;;;;;;;47.23;28.05;;;;;;;7.15;90.93;101486.19;3337484;84;98881;-86
2021/11/10 15:30:40;;;;;;;48.05;27.50;;;;;;;7.05;91.08;101493.41;3398324;85;33232;-86
2021/11/10 15:35:45;;;;;;;49.93;27.05;;;;;;;6.88;91.16;101492.66;3391459;85;98977;-84
2021/11/10 15:40:50;;;;;;;49.25;28.12;;;;;;;6.69;91.47;101483.45;3399497;84;112715;-88
2021/11/10 15:45:51;;;;;;;48.33;28.75;;;;;;;6.55;92.02;101483.39;3398931;84;99093;-88
2021/11/10 15:50:58;;;;;;;53.30;32.20;;;;;;;6.39;91.92;101480.34;3346384;86;99021;-88
2021/11/10 15:55:59;;;;;;;54.70;31.15;;;;;;;6.23;92.37;101477.08;3396108;84;99095;-87
2021/11/10 16:01:03;;;;;;;49.23;29.23;;;;;;;6.11;92.98;101476.92;3382025;84;98847;-89
2021/11/10 16:06:07;;;;;;;45.50;28.33;;;;;;;6.03;93.22;101477.71;3399134;84;99321;-88
2021/11/10 16:11:10;;;;;;;54.10;31.27;;;;;;;5.92;93.13;101478.60;3402693;85;98757;-88
2021/11/10 16:16:11;;;;;;;50.75;28.75;;;;;;;5.81;93.62;101480.59;3395083;85;98994;-89
2021/11/10 16:21:12;;;;;;;53.40;31.23;;;;;;;5.67;93.29;101480.70;3405770;85;98970;-89
2021/11/10 16:26:13;;;;;;;56.05;33.88;;;;;;;5.58;94.05;101483.98;3387425;84;98838;-89
2021/11/10 16:36:17;;;;;;;80.73;40.97;;;;;;;5.38;94.20;101478.30;3390381;84;98654;-91
2021/11/10 16:41:17;;;;;;;82.30;40.80;;;;;;;5.28;94.51;101476.66;3384325;84;98826;-89
2021/11/10 16:46:18;;;;;;;73.27;39.73;;;;;;;5.20;94.84;101472.55;3397286;85;98704;-90
2021/11/10 16:51:19;;;;;;;79.03;42.53;;;;;;;5.17;95.20;101468.52;3388356;84;98999;-88
2021/11/10 16:56:20;;;;;;;85.40;44.33;;;;;;;5.14;95.46;101471.87;3328058;85;98873;-88
2021/11/10 17:01:21;;;;;;;83.20;43.70;;;;;;;5.11;95.54;101466.23;3380821;84;99323;-88
2021/11/10 17:06:22;;;;;;;70.13;41.43;;;;;;;5.09;95.78;101464.39;3322472;86;31707;-88
2021/11/10 17:11:23;;;;;;;72.40;41.57;;;;;;;5.05;95.74;101453.31;3382900;85;99259;-89
2021/11/10 17:16:25;;;;;;;79.67;46.00;;;;;;;5.00;95.62;101447.18;3387018;85;99181;-89
2021/11/10 17:21:26;;;;;;;72.03;41.90;;;;;;;4.93;96.05;101446.30;3381217;85;98893;-89
2021/11/10 17:26:27;;;;;;;69.10;40.30;;;;;;;4.90;96.10;101451.55;3391451;84;98894;-89
2021/11/10 17:31:28;;;;;;;73.53;40.97;;;;;;;4.86;96.33;101458.19;3373311;85;99036;-87
2021/11/10 17:36:29;;;;;;;78.80;42.33;;;;;;;4.85;96.54;101463.98;3334510;86;32569;-87
2021/11/10 17:41:30;;;;;;;86.00;44.73;;;;;;;4.80;96.47;101462.17;3395986;85;99157;-87
2021/11/10 17:46:30;;;;;;;93.70;49.57;;;;;;;4.73;96.38;101459.64;3411929;85;98704;-87
2021/11/10 17:51:31;;;;;;;88.17;44.27;;;;;;;4.69;96.84;101465.50;3380572;84;1185425;-88
2021/11/10 17:56:32;;;;;;;112.53;53.63;;;;;;;4.64;96.98;101450.06;3397696;84;99154;-88
2021/11/10 18:01:36;;;;;;;112.33;52.20;;;;;;;4.63;97.11;101457.20;3327697;86;99400;-86
2021/11/10 18:06:36;;;;;;;122.50;58.87;;;;;;;4.59;97.10;101462.45;3397715;84;35783;-85
2021/11/10 18:11:37;;;;;;;132.57;63.78;;;;;;;4.56;97.35;101454.10;3381456;85;99240;-88
2021/11/10 18:16:38;;;;;;;133.90;67.37;;;;;;;4.50;97.34;101459.44;3393562;85;99379;-89
2021/11/10 18:21:39;;;;;;;132.00;65.23;;;;;;;4.42;97.26;101456.12;3392778;85;99550;-87
2021/11/10 18:26:40;;;;;;;127.53;64.67;;;;;;;4.40;97.63;101471.95;3372375;85;99510;-87
2021/11/10 18:31:42;;;;;;;134.87;71.07;;;;;;;4.29;97.56;101461.88;3387572;85;99465;-86
2021/11/10 18:36:43;;;;;;;132.63;68.93;;;;;;;4.29;97.68;101463.23;3398989;85;34912;-88
2021/11/10 18:41:45;;;;;;;148.60;71.93;;;;;;;4.23;97.64;101455.48;3385270;85;99258;-88
2021/11/10 18:46:46;;;;;;;150.23;68.77;;;;;;;4.18;97.92;101454.25;3390208;85;98942;-88
2021/11/10 18:51:47;;;;;;;176.27;77.27;;;;;;;4.16;98.02;101457.27;3392780;85;99375;-88
2021/11/10 18:56:53;;;;;;;135.20;65.03;;;;;;;4.15;98.17;101454.88;3388263;85;99546;-87
2021/11/10 19:01:59;;;;;;;123.77;63.50;;;;;;;4.11;98.14;101456.06;3383708;85;99255;-87
2021/11/10 19:07:03;;;;;;;131.80;63.27;;;;;;;4.10;98.30;101455.00;3390180;85;99068;-87
2021/11/10 19:22:08;;;;;;;148.62;69.97;;;;;;;4.02;98.55;101436.66;3386333;84;99085;-89
2021/11/10 19:27:10;;;;;;;135.67;68.20;;;;;;;4.01;98.68;101426.87;3393505;85;99110;-90
2021/11/10 19:32:10;;;;;;;120.17;61.67;;;;;;;4.02;98.75;101431.21;3385641;84;99123;-91
2021/11/10 19:37:11;;;;;;;123.67;62.03;;;;;;;4.00;98.77;101439.71;3388035;84;99166;-91
2021/11/10 19:42:12;;;;;;;115.07;60.57;;;;;;;3.99;98.87;101436.71;3388272;85;100099;-92
2021/11/10 19:47:13;;;;;;;109.17;54.37;;;;;;;3.98;98.82;101435.11;3391708;85;99034;-92
2021/11/10 19:52:14;;;;;;;104.00;53.83;;;;;;;3.94;98.48;101434.11;3330782;86;99462;-93
2021/11/10 19:57:20;;;;;;;96.65;50.15;;;;;;;3.86;98.66;101434.04;3388673;84;99166;-92
2021/11/10 20:02:17;;;;;;;109.20;56.10;;;;;;;3.84;98.87;101426.75;3381597;84;99612;-89
2021/11/10 20:07:22;;;;;;;116.93;60.65;;;;;;;3.83;98.95;101424.56;3377456;85;99039;-88
2021/11/10 20:12:21;;;;;;;120.50;59.30;;;;;;;3.82;98.81;101423.54;3385923;84;99119;-89
2021/11/10 20:17:21;;;;;;;113.57;59.13;;;;;;;3.80;99.00;101426.56;3386342;84;98978;-88
2021/11/10 20:22:23;;;;;;;114.10;57.97;;;;;;;3.77;98.86;101437.27;3379967;84;99474;-89
2021/11/10 20:27:26;;;;;;;114.73;55.80;;;;;;;3.73;98.89;101437.08;3387615;84;99147;-88
2021/11/10 20:32:26;;;;;;;103.33;55.10;;;;;;;3.70;98.89;101434.14;3384182;85;98977;-87
2021/11/10 20:37:27;;;;;;;94.73;49.90;;;;;;;3.66;98.86;101427.72;3391350;84;99090;-86
2021/11/10 20:42:28;;;;;;;98.47;53.70;;;;;;;3.62;98.83;101427.53;3385194;85;98578;-87
2021/11/10 20:47:29;;;;;;;110.57;57.43;;;;;;;3.56;98.74;101424.65;3335420;86;98660;-88
2021/11/10 20:52:30;;;;;;;109.43;54.40;;;;;;;3.52;98.88;101429.66;3371978;84;98878;-88
2021/11/10 20:57:31;;;;;;;104.37;55.83;;;;;;;3.48;98.67;101432.73;3359342;85;99160;-87
2021/11/10 21:02:32;;;;;;;115.23;61.60;;;;;;;3.40;98.84;101431.56;3354056;84;99000;-87
2021/11/10 21:07:34;;;;;;;120.05;61.42;;;;;;;3.37;98.85;101434.06;3394557;84;99063;-90
2021/11/10 21:12:36;;;;;;;118.80;62.67;;;;;;;3.32;98.62;101436.89;3328509;86;98741;-89
2021/11/10 21:17:37;;;;;;;123.70;61.60;;;;;;;3.28;98.82;101435.91;3383851;85;98837;-87
2021/11/10 21:22:38;;;;;;;128.70;65.17;;;;;;;3.24;98.66;101432.99;3398617;85;99009;-87
2021/11/10 21:27:40;;;;;;;115.87;62.90;;;;;;;3.18;98.65;101445.06;3402395;85;99059;-87
2021/11/10 21:32:42;;;;;;;127.15;60.65;;;;;;;3.06;98.17;101442.05;3374608;85;119375;-88
2021/11/10 21:37:43;;;;;;;131.00;62.50;;;;;;;3.00;98.66;101439.18;3330206;85;99199;-88
2021/11/10 21:42:47;;;;;;;153.50;69.40;;;;;;;2.99;98.83;101440.30;3354662;84;98733;-87
2021/11/10 21:47:49;;;;;;;169.07;70.87;;;;;;;2.95;98.96;101433.05;3392327;85;98647;-88
2021/11/10 21:52:52;;;;;;;181.27;78.77;;;;;;;2.94;98.89;101431.41;3380103;84;98909;-87
2021/11/10 21:57:53;;;;;;;142.62;64.20;;;;;;;2.86;98.34;101438.39;3388713;85;99121;-87
2021/11/10 22:02:54;;;;;;;149.13;65.63;;;;;;;2.81;98.72;101437.66;3375760;85;99342;-88
2021/11/10 22:07:56;;;;;;;152.30;64.57;;;;;;;2.69;98.90;101434.06;3386815;85;99104;-87
2021/11/10 22:12:58;;;;;;;163.60;72.00;;;;;;;2.73;98.92;101447.31;3384763;84;99233;-88
2021/11/10 22:17:59;;;;;;;193.97;80.37;;;;;;;2.64;98.71;101443.70;3381424;85;30096;-88
2021/11/10 22:23:03;;;;;;;177.00;79.53;;;;;;;2.58;98.78;101438.64;3385153;85;98824;-88
2021/11/10 22:28:05;;;;;;;185.90;82.13;;;;;;;2.51;98.77;101433.59;3378126;85;99184;-88
2021/11/10 22:33:06;;;;;;;165.20;76.75;;;;;;;2.53;99.14;101442.81;3382532;84;99122;-88
2021/11/10 22:38:06;;;;;;;152.77;70.77;;;;;;;2.48;99.12;101432.03;3391448;84;99376;-88
2021/11/10 22:43:07;;;;;;;209.85;83.62;;;;;;;2.47;99.24;101431.21;3383707;84;99043;-88
2021/11/10 22:48:08;;;;;;;209.33;79.87;;;;;;;2.44;99.02;101427.75;3391050;84;33072;-88
2021/11/10 22:53:09;;;;;;;292.70;96.93;;;;;;;2.41;99.39;101422.11;3384201;85;99115;-89
2021/11/10 22:58:10;;;;;;;170.37;67.97;;;;;;;2.31;99.17;101407.34;3387671;85;99003;-88
2021/11/10 23:03:11;;;;;;;166.07;66.63;;;;;;;2.31;99.17;101407.34;3382949;85;99330;-88
2021/11/10 23:08:12;;;;;;;127.67;58.80;;;;;;;2.30;99.62;101413.31;3392164;85;99075;-88
2021/11/10 23:13:13;;;;;;;91.50;48.35;;;;;;;2.27;99.34;101408.50;3400248;85;98963;-88
2021/11/10 23:18:13;;;;;;;106.00;54.33;;;;;;;2.19;99.27;101415.95;3410648;85;27247;-87